JST501 YSSY-YMML
Flight info
| Callsign | JST501 |
|---|---|
| Flight time | N/A |
| Altitude | 38000 |
| Route | WOL H65 LEECE Q29 ML |
| Aircraft | A21N/M-SDE2E3FGHIRWXY/LB1 |
Departure
| Time | 2026-05-04 11:14 |
|---|---|
| Airport | Sydney Kingsford Smith International Airport (YSSY) |
Arrival
| Time | N/A |
|---|---|
| Airport | Melbourne Airport (YMML) |
| Time | Latitude | Longitude | Altitude | Speed | Heading |
|---|---|---|---|---|---|
| 2026-05-04 10:41 | -33.93559 | 151.17681 | 28 ft | 0 kts | 100° |
| 2026-05-04 11:00 | -33.93558 | 151.17672 | 28 ft | 2 kts | 100° |
| 2026-05-04 11:01 | -33.93556 | 151.17604 | 28 ft | 0 kts | 168° |
| 2026-05-04 11:05 | -33.94362 | 151.17901 | 28 ft | 24 kts | 167° |
| 2026-05-04 11:06 | -33.94529 | 151.17887 | 28 ft | 23 kts | 177° |
| 2026-05-04 11:06 | -33.94687 | 151.17926 | 28 ft | 22 kts | 168° |
| 2026-05-04 11:06 | -33.94840 | 151.17966 | 28 ft | 22 kts | 167° |
| 2026-05-04 11:06 | -33.94989 | 151.18005 | 28 ft | 21 kts | 168° |
| 2026-05-04 11:08 | -33.95043 | 151.18417 | 28 ft | 0 kts | 78° |
| 2026-05-04 11:10 | -33.95651 | 151.18809 | 28 ft | 18 kts | 167° |
| 2026-05-04 11:12 | -33.96535 | 151.19038 | 28 ft | 18 kts | 168° |
| 2026-05-04 11:12 | -33.96663 | 151.19070 | 28 ft | 18 kts | 169° |
| 2026-05-04 11:12 | -33.96793 | 151.19067 | 28 ft | 18 kts | 180° |
| 2026-05-04 11:12 | -33.96920 | 151.19094 | 28 ft | 18 kts | 168° |
| 2026-05-04 11:13 | -33.97051 | 151.19128 | 28 ft | 20 kts | 166° |
| 2026-05-04 11:13 | -33.97115 | 151.19259 | 28 ft | 22 kts | 77° |
| 2026-05-04 11:13 | -33.96981 | 151.19357 | 28 ft | 47 kts | 343° |
| 2026-05-04 11:13 | -33.96400 | 151.19204 | 29 ft | 119 kts | 348° |
| 2026-05-04 11:14 | -33.95413 | 151.18947 | 166 ft | 160 kts | 349° |
| 2026-05-04 11:14 | -33.94322 | 151.18674 | 807 ft | 161 kts | 353° |
| 2026-05-04 11:14 | -33.93285 | 151.18965 | 1556 ft | 162 kts | 37° |
| 2026-05-04 11:16 | -33.93782 | 151.30304 | 5066 ft | 267 kts | 82° |
| 2026-05-04 11:16 | -33.93659 | 151.32601 | 5662 ft | 284 kts | 83° |
| 2026-05-04 11:16 | -33.93566 | 151.35001 | 6441 ft | 293 kts | 83° |
| 2026-05-04 11:17 | -33.93488 | 151.37444 | 7309 ft | 296 kts | 83° |
| 2026-05-04 11:17 | -33.93627 | 151.39916 | 8157 ft | 306 kts | 103° |
| 2026-05-04 11:19 | -34.05300 | 151.36146 | 12277 ft | 351 kts | 231° |
| 2026-05-04 11:19 | -34.07048 | 151.34073 | 13036 ft | 355 kts | 230° |
| 2026-05-04 11:19 | -34.08837 | 151.32016 | 13812 ft | 358 kts | 230° |
| 2026-05-04 11:19 | -34.10652 | 151.29955 | 14501 ft | 361 kts | 230° |
| 2026-05-04 11:20 | -34.12493 | 151.27879 | 15162 ft | 366 kts | 230° |
| 2026-05-04 11:20 | -34.14357 | 151.25782 | 15814 ft | 369 kts | 230° |
| 2026-05-04 11:20 | -34.16673 | 151.23183 | 16590 ft | 374 kts | 230° |
| 2026-05-04 11:20 | -34.18582 | 151.21042 | 17210 ft | 378 kts | 230° |
| 2026-05-04 11:22 | -34.31481 | 151.04651 | 21315 ft | 393 kts | 238° |
| 2026-05-04 11:22 | -34.33215 | 151.02092 | 21853 ft | 396 kts | 238° |
| 2026-05-04 11:23 | -34.34969 | 150.99524 | 22412 ft | 398 kts | 238° |
| 2026-05-04 11:23 | -34.36741 | 150.96938 | 22927 ft | 401 kts | 238° |
| 2026-05-04 11:24 | -34.47589 | 150.81172 | 25779 ft | 414 kts | 238° |
| 2026-05-04 11:25 | -34.49428 | 150.78495 | 26201 ft | 416 kts | 238° |
| 2026-05-04 11:25 | -34.51276 | 150.75804 | 26616 ft | 417 kts | 238° |
| 2026-05-04 11:25 | -34.53134 | 150.73097 | 26991 ft | 420 kts | 238° |
| 2026-05-04 11:26 | -34.56873 | 150.67639 | 27725 ft | 424 kts | 238° |
| 2026-05-04 11:27 | -34.70226 | 150.48084 | 29946 ft | 438 kts | 238° |
| 2026-05-04 11:28 | -34.72166 | 150.45233 | 30221 ft | 439 kts | 238° |
| 2026-05-04 11:28 | -34.74112 | 150.42374 | 30508 ft | 441 kts | 238° |
| 2026-05-04 11:28 | -34.76058 | 150.39513 | 30825 ft | 441 kts | 238° |
| 2026-05-04 11:28 | -34.78001 | 150.36657 | 31259 ft | 437 kts | 238° |
| 2026-05-04 11:29 | -34.79931 | 150.33820 | 31699 ft | 434 kts | 239° |
| 2026-05-04 11:29 | -34.81843 | 150.31002 | 32119 ft | 431 kts | 239° |
| 2026-05-04 11:29 | -34.83742 | 150.28200 | 32516 ft | 429 kts | 239° |
| 2026-05-04 11:29 | -34.85631 | 150.25413 | 32889 ft | 427 kts | 240° |
| 2026-05-04 11:31 | -34.98580 | 150.06206 | 34879 ft | 417 kts | 240° |
| 2026-05-04 11:33 | -35.10855 | 149.86817 | 36316 ft | 410 kts | 243° |
| 2026-05-04 11:33 | -35.12513 | 149.83997 | 36451 ft | 410 kts | 243° |
| 2026-05-04 11:33 | -35.14174 | 149.81170 | 36573 ft | 411 kts | 243° |
| 2026-05-04 11:34 | -35.15834 | 149.78342 | 36703 ft | 411 kts | 243° |
| 2026-05-04 11:34 | -35.17496 | 149.75510 | 36799 ft | 411 kts | 243° |
| 2026-05-04 11:34 | -35.19158 | 149.72674 | 36940 ft | 411 kts | 243° |
| 2026-05-04 11:34 | -35.20820 | 149.69840 | 37033 ft | 411 kts | 243° |
| 2026-05-04 11:35 | -35.22481 | 149.67003 | 37137 ft | 412 kts | 243° |
| 2026-05-04 11:35 | -35.24145 | 149.64160 | 37234 ft | 412 kts | 243° |
| 2026-05-04 11:35 | -35.27476 | 149.58464 | 37396 ft | 414 kts | 243° |
| 2026-05-04 11:36 | -35.30817 | 149.52736 | 37537 ft | 416 kts | 243° |
| 2026-05-04 11:36 | -35.34169 | 149.46982 | 37703 ft | 416 kts | 243° |
| 2026-05-04 11:37 | -35.35843 | 149.44105 | 37804 ft | 416 kts | 242° |
| 2026-05-04 11:37 | -35.37520 | 149.41223 | 37867 ft | 417 kts | 242° |
| 2026-05-04 11:37 | -35.40878 | 149.35442 | 37978 ft | 418 kts | 242° |
| 2026-05-04 11:38 | -35.44247 | 149.29629 | 38043 ft | 420 kts | 243° |
| 2026-05-04 11:38 | -35.47615 | 149.23813 | 38059 ft | 419 kts | 243° |
| 2026-05-04 11:39 | -35.51085 | 149.17811 | 38052 ft | 419 kts | 243° |
| 2026-05-04 11:41 | -35.62860 | 148.97355 | 38046 ft | 422 kts | 243° |
| 2026-05-04 11:41 | -35.66230 | 148.91474 | 38046 ft | 422 kts | 242° |
| 2026-05-04 11:42 | -35.69597 | 148.85597 | 38052 ft | 422 kts | 242° |
| 2026-05-04 11:42 | -35.72959 | 148.79718 | 38045 ft | 422 kts | 243° |
| 2026-05-04 11:43 | -35.76318 | 148.73827 | 38044 ft | 422 kts | 243° |
| 2026-05-04 11:43 | -35.79677 | 148.67926 | 38045 ft | 421 kts | 242° |
| 2026-05-04 11:44 | -35.83029 | 148.62035 | 38044 ft | 421 kts | 242° |
| 2026-05-04 11:44 | -35.86376 | 148.56134 | 38039 ft | 420 kts | 242° |
| 2026-05-04 11:45 | -35.89714 | 148.50237 | 38050 ft | 420 kts | 242° |
| 2026-05-04 11:45 | -35.93047 | 148.44327 | 38051 ft | 422 kts | 242° |
| 2026-05-04 11:46 | -35.96381 | 148.38396 | 38039 ft | 421 kts | 242° |
| 2026-05-04 11:46 | -35.99708 | 148.32474 | 38053 ft | 421 kts | 242° |
| 2026-05-04 11:47 | -36.03034 | 148.26539 | 38051 ft | 422 kts | 242° |
| 2026-05-04 11:47 | -36.06363 | 148.20592 | 38073 ft | 422 kts | 242° |
| 2026-05-04 11:48 | -36.09685 | 148.14643 | 38060 ft | 422 kts | 242° |
| 2026-05-04 11:48 | -36.13016 | 148.08676 | 38053 ft | 422 kts | 242° |
| 2026-05-04 11:49 | -36.16350 | 148.02722 | 38060 ft | 422 kts | 242° |
| 2026-05-04 11:49 | -36.19676 | 147.96766 | 38068 ft | 422 kts | 242° |
| 2026-05-04 11:50 | -36.23012 | 147.90781 | 38044 ft | 424 kts | 242° |
| 2026-05-04 11:50 | -36.26348 | 147.84784 | 38055 ft | 424 kts | 242° |
| 2026-05-04 11:51 | -36.29678 | 147.78788 | 38051 ft | 423 kts | 242° |
| 2026-05-04 11:51 | -36.33002 | 147.72791 | 38043 ft | 424 kts | 242° |
| 2026-05-04 11:52 | -36.36330 | 147.66767 | 38058 ft | 424 kts | 242° |
| 2026-05-04 11:52 | -36.39650 | 147.60744 | 38040 ft | 424 kts | 243° |
| 2026-05-04 11:53 | -36.42975 | 147.54700 | 38039 ft | 426 kts | 242° |
| 2026-05-04 11:53 | -36.46305 | 147.48632 | 38036 ft | 427 kts | 242° |
| 2026-05-04 11:55 | -36.59633 | 147.24257 | 38017 ft | 428 kts | 243° |
| 2026-05-04 11:56 | -36.62964 | 147.18130 | 38035 ft | 429 kts | 243° |
| 2026-05-04 11:56 | -36.66302 | 147.11988 | 38029 ft | 429 kts | 243° |
| 2026-05-04 11:57 | -36.69627 | 147.05853 | 38027 ft | 429 kts | 242° |
| 2026-05-04 11:57 | -36.72959 | 146.99700 | 38027 ft | 430 kts | 243° |
| 2026-05-04 11:58 | -36.76296 | 146.93528 | 37811 ft | 433 kts | 242° |
| 2026-05-04 11:58 | -36.77969 | 146.90430 | 37317 ft | 431 kts | 243° |
| 2026-05-04 11:58 | -36.79638 | 146.87341 | 36709 ft | 432 kts | 243° |
| 2026-05-04 11:58 | -36.81311 | 146.84238 | 36043 ft | 433 kts | 243° |
| 2026-05-04 11:59 | -36.82982 | 146.81135 | 35406 ft | 432 kts | 243° |
| 2026-05-04 11:59 | -36.84649 | 146.78035 | 34855 ft | 432 kts | 244° |
| 2026-05-04 11:59 | -36.86316 | 146.74935 | 34312 ft | 433 kts | 244° |
| 2026-05-04 11:59 | -36.87990 | 146.71819 | 33650 ft | 436 kts | 245° |
| 2026-05-04 12:00 | -36.89669 | 146.68685 | 32962 ft | 437 kts | 245° |
| 2026-05-04 12:00 | -36.91349 | 146.65542 | 32279 ft | 437 kts | 245° |
| 2026-05-04 12:00 | -36.93031 | 146.62396 | 31624 ft | 437 kts | 245° |
| 2026-05-04 12:00 | -36.94712 | 146.59243 | 30880 ft | 439 kts | 245° |
| 2026-05-04 12:01 | -36.96402 | 146.56077 | 30116 ft | 441 kts | 245° |
| 2026-05-04 12:01 | -36.98094 | 146.52905 | 29484 ft | 439 kts | 245° |
| 2026-05-04 12:02 | -37.07898 | 146.34462 | 26452 ft | 413 kts | 243° |